New Salem, Texas
Current Conditions -  °F | °C
As of 2:15 AM on Monday 24 Nov 2014 (Local Time) from KRFI Reporting Station
Broken Clouds Broken Clouds  
Wind Chill: 48°   Ceiling: 3100
Heat Index: 50°   Visibility: 10mi
Dew Point: 40°   Wind: 6mph
Humidity: 70%   Direction: 300°WNW
Pressure: 29.84"   Gusts: NA
Location:  32.1449°N, 94.7416°W
Report Text: KRFI 240815Z AUTO 30005KT 10SM BKN031 10/05 A2984 RMK AO2 T00990046
Loading
Personal Weather Stations






























Interactive Weather Map New forecast layout! Learn more

10-Day Weather Forecast

Advertisements
Track Severe Weather on mobile